createdAt,value
2022-11-03T00:02:08.016Z,1.70
2022-11-03T00:04:35.329Z,1.95
2022-11-03T00:07:02.535Z,2.28
2022-11-03T00:09:32.627Z,2.20
2022-11-03T00:11:59.802Z,2.70
2022-11-03T00:14:26.989Z,2.85
2022-11-03T00:16:54.682Z,2.90
2022-11-03T00:19:21.883Z,2.90
2022-11-03T00:21:50.091Z,2.75
2022-11-03T00:24:17.288Z,2.70
2022-11-03T00:26:44.678Z,2.85
2022-11-03T00:29:14.004Z,3.08
2022-11-03T00:31:43.260Z,3.20
2022-11-03T00:34:10.854Z,2.85
2022-11-03T00:36:45.088Z,2.40
2022-11-03T00:39:13.141Z,2.97
2022-11-03T00:41:40.730Z,3.00
2022-11-03T00:44:08.773Z,2.78
2022-11-03T00:46:36.238Z,3.20
2022-11-03T00:49:05.245Z,3.50
2022-11-03T00:51:34.714Z,3.42
2022-11-03T00:54:04.771Z,3.90
2022-11-03T00:56:36.189Z,3.92
2022-11-03T00:59:05.196Z,4.30
2022-11-03T01:01:43.891Z,4.68
2022-11-03T01:04:31.732Z,4.47
2022-11-03T01:07:00.329Z,3.90
2022-11-03T01:09:43.632Z,4.78
2022-11-03T01:12:13.660Z,5.28
2022-11-03T01:14:45.433Z,5.03
2022-11-03T01:17:23.891Z,4.90
2022-11-03T01:19:51.454Z,4.70
2022-11-03T01:22:19.428Z,4.70
2022-11-03T01:24:46.711Z,5.80
2022-11-03T01:27:19.350Z,4.57
2022-11-03T01:29:47.101Z,4.82
2022-11-03T01:32:14.481Z,5.38
2022-11-03T01:34:41.705Z,4.95
2022-11-03T01:37:09.024Z,5.18
2022-11-03T01:39:36.295Z,4.70
2022-11-03T01:42:03.903Z,4.82
2022-11-03T01:44:36.775Z,4.60
2022-11-03T01:47:15.594Z,4.85
2022-11-03T01:49:54.852Z,5.00
2022-11-03T01:52:24.398Z,4.50
2022-11-03T01:55:15.422Z,4.80
2022-11-03T01:57:53.988Z,4.25
2022-11-03T02:00:21.763Z,4.25
2022-11-03T02:02:49.315Z,4.05
2022-11-03T02:05:18.496Z,4.07
2022-11-03T02:08:19.564Z,3.40
2022-11-03T02:10:51.068Z,3.90
2022-11-03T02:13:23.957Z,3.90
2022-11-03T02:15:55.226Z,3.80
2022-11-03T02:18:28.285Z,3.97
2022-11-03T02:21:08.832Z,3.75
2022-11-03T02:23:43.860Z,3.92
2022-11-03T02:26:13.502Z,3.65
2022-11-03T02:28:41.045Z,3.95
2022-11-03T02:31:10.989Z,3.70
2022-11-03T02:33:47.052Z,3.65
2022-11-03T02:36:24.991Z,3.60
2022-11-03T02:39:03.727Z,3.42
2022-11-03T02:41:35.138Z,3.50
2022-11-03T02:44:03.785Z,3.47
2022-11-03T02:46:32.825Z,3.42
2022-11-03T02:49:00.027Z,3.72
2022-11-03T02:51:27.344Z,3.55
2022-11-03T02:54:14.499Z,3.90
2022-11-03T02:56:50.898Z,3.63
2022-11-03T02:59:24.202Z,3.40
2022-11-03T03:02:08.865Z,3.72
2022-11-03T03:04:41.332Z,3.58
2022-11-03T03:07:14.396Z,3.47
2022-11-03T03:09:47.381Z,3.70
2022-11-03T03:12:17.553Z,3.20
2022-11-03T03:14:47.160Z,3.15
2022-11-03T03:17:35.229Z,3.60
2022-11-03T03:20:15.029Z,3.13
2022-11-03T03:22:47.880Z,3.10
2022-11-03T03:25:36.534Z,3.35
2022-11-03T03:28:13.357Z,2.92
2022-11-03T03:30:42.599Z,3.28
2022-11-03T03:33:11.158Z,3.35
2022-11-03T03:35:41.718Z,3.38
2022-11-03T03:40:42.213Z,3.60
2022-11-03T03:43:12.781Z,3.22
2022-11-03T03:48:08.021Z,3.20
2022-11-03T03:50:39.087Z,2.70
2022-11-03T03:53:09.994Z,3.03
2022-11-03T03:55:40.693Z,2.78
2022-11-03T03:58:10.651Z,3.20
2022-11-03T04:00:40.317Z,2.80
2022-11-03T04:03:13.093Z,3.43
2022-11-03T04:05:40.303Z,3.15
2022-11-03T04:08:07.784Z,3.30
2022-11-03T04:10:35.178Z,3.50
2022-11-03T04:13:21.095Z,3.33
2022-11-03T04:16:06.884Z,3.97
2022-11-03T04:18:52.553Z,3.50
2022-11-03T04:21:38.290Z,4.10
2022-11-03T04:24:06.563Z,3.80
2022-11-03T04:26:33.792Z,3.95
2022-11-03T04:29:02.053Z,4.40
2022-11-03T04:31:36.933Z,3.53
2022-11-03T04:34:10.443Z,3.92
2022-11-03T04:36:37.774Z,3.28
2022-11-03T04:39:18.939Z,3.50
2022-11-03T04:41:46.577Z,4.03
2022-11-03T04:44:17.011Z,4.13
2022-11-03T04:46:46.558Z,4.22
2022-11-03T04:49:21.781Z,4.47
2022-11-03T04:51:50.228Z,4.63
2022-11-03T04:54:21.697Z,4.63
2022-11-03T04:56:48.922Z,6.03
2022-11-03T04:59:17.443Z,4.93
2022-11-03T05:01:46.413Z,5.85
2022-11-03T05:04:18.421Z,5.63
2022-11-03T05:06:53.778Z,6.13
2022-11-03T05:09:26.452Z,5.40
2022-11-03T05:11:54.464Z,5.20
2022-11-03T05:14:25.020Z,5.43
2022-11-03T05:19:30.849Z,5.90
2022-11-03T05:22:00.365Z,5.72
2022-11-03T05:24:28.001Z,6.65
2022-11-03T05:26:58.260Z,6.13
2022-11-03T05:29:39.611Z,5.25
2022-11-03T05:32:16.946Z,5.78
2022-11-03T05:34:57.298Z,5.93
2022-11-03T05:37:33.233Z,5.53
2022-11-03T05:40:22.793Z,5.72
2022-11-03T05:43:02.950Z,5.88
2022-11-03T05:45:34.751Z,6.18
2022-11-03T05:48:04.906Z,6.43
2022-11-03T05:50:35.336Z,6.35
2022-11-03T05:53:05.253Z,5.60
2022-11-03T05:55:36.037Z,6.25
2022-11-03T05:58:27.165Z,6.22
2022-11-03T06:00:55.387Z,6.53
2022-11-03T06:03:28.907Z,5.80
2022-11-03T06:05:57.496Z,6.45
2022-11-03T06:08:28.726Z,7.90
2022-11-03T06:10:58.533Z,6.38
2022-11-03T06:13:30.834Z,6.73
2022-11-03T06:16:32.734Z,6.22
2022-11-03T06:19:01.971Z,6.43
2022-11-03T06:21:29.185Z,5.72
2022-11-03T06:23:56.429Z,5.97
2022-11-03T06:26:27.410Z,5.85
2022-11-03T06:28:55.765Z,6.75
2022-11-03T06:31:28.879Z,6.30
2022-11-03T06:33:57.802Z,5.43
2022-11-03T06:36:36.172Z,6.55
2022-11-03T06:39:23.537Z,6.80
2022-11-03T06:41:51.846Z,6.68
2022-11-03T06:44:30.020Z,6.88
2022-11-03T06:47:01.807Z,6.80
2022-11-03T06:49:30.264Z,6.40
2022-11-03T06:51:59.643Z,6.30
2022-11-03T06:54:26.862Z,6.72
2022-11-03T06:56:53.951Z,7.20
2022-11-03T06:59:21.063Z,7.13
2022-11-03T07:01:54.750Z,6.88
2022-11-03T07:04:28.719Z,6.80
2022-11-03T07:07:03.093Z,6.47
2022-11-03T07:09:30.269Z,6.55
2022-11-03T07:12:01.075Z,6.95
2022-11-03T07:14:34.374Z,7.53
2022-11-03T07:17:05.115Z,7.82
2022-11-03T07:19:42.550Z,8.35
2022-11-03T07:22:15.265Z,6.43
2022-11-03T07:24:46.023Z,7.53
2022-11-03T07:27:16.490Z,7.03
2022-11-03T07:29:45.088Z,7.80
2022-11-03T07:32:28.965Z,6.72
2022-11-03T07:35:11.765Z,6.55
2022-11-03T07:37:39.099Z,6.55
2022-11-03T07:40:12.474Z,6.47
2022-11-03T07:42:39.694Z,6.90
2022-11-03T07:45:29.342Z,6.38
2022-11-03T07:47:59.312Z,6.00
2022-11-03T07:50:28.849Z,5.38
2022-11-03T07:52:56.002Z,5.47
2022-11-03T07:55:23.090Z,5.80
2022-11-03T07:57:50.268Z,6.00
2022-11-03T08:00:22.032Z,5.28
2022-11-03T08:02:55.310Z,5.13
2022-11-03T08:05:22.556Z,5.60
2022-11-03T08:07:49.755Z,5.78
2022-11-03T08:10:17.028Z,4.95
2022-11-03T08:12:44.165Z,4.93
2022-11-03T08:15:11.890Z,5.18
2022-11-03T08:17:39.116Z,5.13
2022-11-03T08:20:06.686Z,5.18
2022-11-03T08:22:33.877Z,4.78
2022-11-03T08:25:01.018Z,5.38
2022-11-03T08:27:28.178Z,5.07
2022-11-03T08:29:55.394Z,4.90
2022-11-03T08:32:22.601Z,5.18
2022-11-03T08:34:49.859Z,4.68
2022-11-03T08:37:17.422Z,5.18
2022-11-03T08:39:44.765Z,4.68
2022-11-03T08:42:11.993Z,4.88
2022-11-03T08:44:39.250Z,5.50
2022-11-03T08:47:06.424Z,4.25
2022-11-03T08:49:33.643Z,4.97
2022-11-03T08:52:00.893Z,4.70
2022-11-03T08:54:28.132Z,3.92
2022-11-03T08:56:55.394Z,3.75
2022-11-03T08:59:22.578Z,4.47
2022-11-03T09:01:49.875Z,4.57
2022-11-03T09:04:17.161Z,4.57
2022-11-03T09:06:44.337Z,4.20
2022-11-03T09:11:58.669Z,3.88
2022-11-03T09:14:25.881Z,4.22
2022-11-03T09:16:53.189Z,4.05
2022-11-03T09:19:20.392Z,4.05
2022-11-03T09:21:47.543Z,4.07
2022-11-03T09:24:14.892Z,4.57
2022-11-03T09:26:42.094Z,4.32
2022-11-03T09:29:09.262Z,4.00
2022-11-03T09:31:36.866Z,4.03
2022-11-03T09:34:04.351Z,4.30
2022-11-03T09:36:31.596Z,4.55
2022-11-03T09:38:58.832Z,4.38
2022-11-03T09:41:29.153Z,4.90
2022-11-03T09:44:12.790Z,4.25
2022-11-03T09:46:40.376Z,4.07
2022-11-03T09:49:07.663Z,4.38
2022-11-03T09:51:36.901Z,4.18
2022-11-03T09:54:05.534Z,4.47
2022-11-03T09:56:37.251Z,3.83
2022-11-03T09:59:24.895Z,3.80
2022-11-03T10:01:53.817Z,3.78
2022-11-03T10:04:28.286Z,4.75
2022-11-03T10:06:59.312Z,4.32
2022-11-03T10:09:29.139Z,4.10
2022-11-03T10:11:56.334Z,3.78
2022-11-03T10:14:24.470Z,3.90
2022-11-03T10:17:02.431Z,4.15
2022-11-03T10:19:32.216Z,4.00
2022-11-03T10:21:59.485Z,4.60
2022-11-03T10:24:26.624Z,3.75
2022-11-03T10:26:57.539Z,4.57
2022-11-03T10:29:26.868Z,4.13
2022-11-03T10:31:56.366Z,4.88
2022-11-03T10:34:24.651Z,4.38
2022-11-03T10:37:26.749Z,4.10
2022-11-03T10:39:55.978Z,4.22
2022-11-03T10:42:34.924Z,5.00
2022-11-03T10:45:22.021Z,4.95
2022-11-03T10:48:04.988Z,3.83
2022-11-03T10:50:32.133Z,4.15
2022-11-03T10:52:59.502Z,3.95
2022-11-03T10:55:27.975Z,4.05
2022-11-03T10:57:56.794Z,3.75
2022-11-03T11:00:24.596Z,3.50
2022-11-03T11:02:59.414Z,3.60
2022-11-03T11:05:27.010Z,3.80
2022-11-03T11:07:55.692Z,3.72
2022-11-03T11:10:25.397Z,3.30
2022-11-03T11:13:26.183Z,4.30
2022-11-03T11:18:34.193Z,3.88
2022-11-03T11:21:22.262Z,3.40
2022-11-03T11:23:52.744Z,3.50
2022-11-03T11:26:26.450Z,3.30
2022-11-03T11:29:08.644Z,3.90
2022-11-03T11:31:36.962Z,3.75
2022-11-03T11:34:10.172Z,3.70
2022-11-03T11:36:39.726Z,3.50
2022-11-03T11:39:31.277Z,3.75
2022-11-03T11:42:18.979Z,3.90
2022-11-03T11:44:46.825Z,4.05
2022-11-03T11:47:26.155Z,3.72
2022-11-03T11:50:11.799Z,3.80
2022-11-03T11:52:46.312Z,3.70
2022-11-03T11:55:25.642Z,3.38
2022-11-03T11:57:54.064Z,3.20
2022-11-03T12:00:27.222Z,3.42
2022-11-03T12:02:55.117Z,3.50
2022-11-03T12:05:24.112Z,4.03
2022-11-03T12:07:51.391Z,3.45
2022-11-03T12:10:19.759Z,3.10
2022-11-03T12:12:47.028Z,3.40
2022-11-03T12:15:50.034Z,3.35
2022-11-03T12:18:32.861Z,4.40
2022-11-03T12:21:33.739Z,4.03
2022-11-03T12:24:01.010Z,3.50
2022-11-03T12:26:28.130Z,3.67
2022-11-03T12:28:55.627Z,3.40
2022-11-03T12:31:22.854Z,3.10
2022-11-03T12:33:50.009Z,3.30
2022-11-03T12:36:17.793Z,3.60
2022-11-03T12:38:44.945Z,3.25
2022-11-03T12:41:25.604Z,2.80
2022-11-03T12:46:22.627Z,3.10
2022-11-03T12:48:50.338Z,2.60
2022-11-03T12:51:22.470Z,2.90
2022-11-03T12:53:50.348Z,3.20
2022-11-03T12:56:18.955Z,3.42
2022-11-03T12:58:46.301Z,3.30
2022-11-03T13:01:13.716Z,3.60
2022-11-03T13:03:40.954Z,3.15
2022-11-03T13:06:10.424Z,3.35
2022-11-03T13:08:38.264Z,3.33
2022-11-03T13:11:25.971Z,3.50
2022-11-03T13:13:53.777Z,3.35
2022-11-03T13:16:21.479Z,3.35
2022-11-03T13:18:48.724Z,3.80
2022-11-03T13:21:15.859Z,3.42
2022-11-03T13:23:43.131Z,3.30
2022-11-03T13:26:10.604Z,3.30
2022-11-03T13:28:37.789Z,3.38
2022-11-03T13:31:05.086Z,2.45
2022-11-03T13:33:32.300Z,3.40
2022-11-03T13:35:59.636Z,2.75
2022-11-03T13:38:26.892Z,3.38
2022-11-03T13:40:56.910Z,2.88
2022-11-03T13:43:25.259Z,2.90
2022-11-03T13:45:53.223Z,2.90
2022-11-03T13:51:10.777Z,2.90
2022-11-03T13:56:26.398Z,3.20
2022-11-03T14:01:41.928Z,3.30
2022-11-03T14:06:57.093Z,3.05
2022-11-03T14:09:25.009Z,2.88
2022-11-03T14:12:10.655Z,2.70
2022-11-03T14:14:37.829Z,3.30
2022-11-03T14:17:04.919Z,2.97
2022-11-03T14:19:38.153Z,3.05
2022-11-03T14:22:07.062Z,3.13
2022-11-03T14:24:34.637Z,2.55
2022-11-03T14:27:01.820Z,2.80
2022-11-03T14:29:28.994Z,3.15
2022-11-03T14:31:56.193Z,3.70
2022-11-03T14:34:23.299Z,3.22
2022-11-03T14:36:50.501Z,2.95
2022-11-03T14:39:17.785Z,2.90
2022-11-03T14:42:03.472Z,2.80
2022-11-03T14:44:38.727Z,3.25
2022-11-03T14:47:09.155Z,3.75
2022-11-03T14:49:36.556Z,3.70
2022-11-03T14:52:05.368Z,3.25
2022-11-03T14:54:32.659Z,3.20
2022-11-03T14:57:00.357Z,3.53
2022-11-03T14:59:28.003Z,3.55
2022-11-03T15:01:55.581Z,3.03
2022-11-03T15:04:23.093Z,3.40
2022-11-03T15:06:50.756Z,3.05
2022-11-03T15:09:18.351Z,3.10
2022-11-03T15:11:46.579Z,3.30
2022-11-03T15:14:13.964Z,2.80
2022-11-03T15:16:41.323Z,2.97
2022-11-03T15:19:08.936Z,3.40
2022-11-03T15:21:36.639Z,3.30
2022-11-03T15:26:51.129Z,3.20
2022-11-03T15:29:18.363Z,3.05
2022-11-03T15:31:48.198Z,2.90
2022-11-03T15:34:16.103Z,3.20
2022-11-03T15:36:43.187Z,3.00
2022-11-03T15:39:10.425Z,3.10
2022-11-03T15:41:37.968Z,3.03
2022-11-03T15:44:05.089Z,3.03
2022-11-03T15:46:32.295Z,3.00
2022-11-03T15:49:00.767Z,2.85
2022-11-03T15:51:27.922Z,3.13
2022-11-03T15:53:58.456Z,2.97
2022-11-03T15:56:27.639Z,3.63
2022-11-03T15:58:55.048Z,3.20
2022-11-03T16:01:22.580Z,3.25
2022-11-03T16:03:49.765Z,3.80
2022-11-03T16:06:16.899Z,3.60
2022-11-03T16:08:43.992Z,3.33
2022-11-03T16:11:11.081Z,3.00
2022-11-03T16:13:38.312Z,3.60
2022-11-03T16:16:05.783Z,3.50
2022-11-03T16:18:33.029Z,3.35
2022-11-03T16:21:00.182Z,3.50
2022-11-03T16:23:27.315Z,3.35
2022-11-03T16:25:54.545Z,3.33
2022-11-03T16:28:21.791Z,3.47
2022-11-03T16:30:54.061Z,3.65
2022-11-03T16:33:21.851Z,3.53
2022-11-03T16:35:49.092Z,3.08
2022-11-03T16:38:16.389Z,3.17
2022-11-03T16:40:43.916Z,3.13
2022-11-03T16:43:11.371Z,2.80
2022-11-03T16:45:38.725Z,3.15
2022-11-03T16:48:07.353Z,2.50
2022-11-03T16:50:35.587Z,3.08
2022-11-03T16:53:03.631Z,3.15
2022-11-03T16:55:30.818Z,2.80
2022-11-03T16:57:57.943Z,2.92
2022-11-03T17:00:25.290Z,2.92
2022-11-03T17:02:52.577Z,3.08
2022-11-03T17:05:21.290Z,3.03
2022-11-03T17:07:53.534Z,3.10
2022-11-03T17:10:21.621Z,3.28
2022-11-03T17:12:48.948Z,3.30
2022-11-03T17:15:17.439Z,3.35
2022-11-03T17:17:45.094Z,3.10
2022-11-03T17:20:12.958Z,3.67
2022-11-03T17:22:40.460Z,3.25
2022-11-03T17:25:12.140Z,3.03
2022-11-03T17:27:46.280Z,2.88
2022-11-03T17:30:21.929Z,2.92
2022-11-03T17:32:51.068Z,2.85
2022-11-03T17:35:23.327Z,2.85
2022-11-03T17:37:51.940Z,2.92
2022-11-03T17:40:25.353Z,2.80
2022-11-03T17:42:53.388Z,3.10
2022-11-03T17:45:23.128Z,2.90
2022-11-03T17:47:50.452Z,2.83
2022-11-03T17:50:20.536Z,3.00
2022-11-03T17:52:49.799Z,2.92
2022-11-03T17:55:18.359Z,3.05
2022-11-03T17:57:46.215Z,2.92
2022-11-03T18:00:20.833Z,3.25
2022-11-03T18:02:50.841Z,2.67
2022-11-03T18:05:31.848Z,3.05
2022-11-03T18:08:01.406Z,3.20
2022-11-03T18:10:37.847Z,3.20
2022-11-03T18:13:33.058Z,2.90
2022-11-03T18:16:11.074Z,2.83
2022-11-03T18:18:42.033Z,2.97
2022-11-03T18:21:23.789Z,2.78
2022-11-03T18:23:51.213Z,2.75
2022-11-03T18:26:21.540Z,3.00
2022-11-03T18:28:50.493Z,3.03
2022-11-03T18:31:42.225Z,2.60
2022-11-03T18:34:16.083Z,2.70
2022-11-03T18:36:44.366Z,2.92
2022-11-03T18:39:20.271Z,2.75
2022-11-03T18:41:47.433Z,2.95
2022-11-03T18:44:25.125Z,2.50
2022-11-03T18:46:53.303Z,2.67
2022-11-03T18:49:23.761Z,2.63
2022-11-03T18:52:03.341Z,2.60
2022-11-03T18:54:32.960Z,2.33
2022-11-03T18:57:00.811Z,2.42
2022-11-03T18:59:37.837Z,2.63
2022-11-03T19:02:28.598Z,2.63
2022-11-03T19:04:55.754Z,2.50
2022-11-03T19:07:29.854Z,2.88
2022-11-03T19:09:57.231Z,2.40
2022-11-03T19:12:24.654Z,2.58
2022-11-03T19:14:52.249Z,2.40
2022-11-03T19:17:23.967Z,2.50
2022-11-03T19:19:53.145Z,2.80
2022-11-03T19:22:22.502Z,2.65
2022-11-03T19:24:49.929Z,2.80
2022-11-03T19:27:27.012Z,2.83
2022-11-03T19:29:56.117Z,2.42
2022-11-03T19:32:26.731Z,2.40
2022-11-03T19:38:14.029Z,3.05
2022-11-03T19:41:00.533Z,2.50
2022-11-03T19:43:33.346Z,2.30
2022-11-03T19:46:01.836Z,2.70
2022-11-03T19:48:32.301Z,3.10
2022-11-03T19:53:29.406Z,3.03
2022-11-03T19:55:57.031Z,2.95
2022-11-03T19:58:27.251Z,2.55
2022-11-03T20:00:55.496Z,2.60
2022-11-03T20:03:23.390Z,2.97
2022-11-03T20:05:56.956Z,3.25
2022-11-03T20:08:27.355Z,2.88
2022-11-03T20:10:54.531Z,2.65
2022-11-03T20:13:24.512Z,2.90
2022-11-03T20:15:57.394Z,2.90
2022-11-03T20:18:27.636Z,2.88
2022-11-03T20:20:54.896Z,2.97
2022-11-03T20:23:27.355Z,2.60
2022-11-03T20:25:55.411Z,2.88
2022-11-03T20:28:25.826Z,2.60
2022-11-03T20:30:53.801Z,2.53
2022-11-03T20:33:22.861Z,2.60
2022-11-03T20:35:52.231Z,2.38
2022-11-03T20:38:20.735Z,2.72
2022-11-03T20:40:51.499Z,2.47
2022-11-03T20:43:39.084Z,2.53
2022-11-03T20:46:27.198Z,2.60
2022-11-03T20:48:57.971Z,2.50
2022-11-03T20:51:28.080Z,2.42
2022-11-03T20:53:56.045Z,2.47
2022-11-03T20:56:25.855Z,2.42
2022-11-03T20:58:53.715Z,2.47
2022-11-03T21:01:27.836Z,2.40
2022-11-03T21:03:59.981Z,2.30
2022-11-03T21:06:30.032Z,2.33
2022-11-03T21:08:57.581Z,2.67
2022-11-03T21:11:28.198Z,2.20
2022-11-03T21:13:57.890Z,2.45
2022-11-03T21:16:45.481Z,2.65
2022-11-03T21:19:35.330Z,2.40
2022-11-03T21:22:02.555Z,2.50
2022-11-03T21:24:29.701Z,2.47
2022-11-03T21:26:56.877Z,2.60
2022-11-03T21:29:58.366Z,2.30
2022-11-03T21:32:16.391Z,2.75
2022-11-03T21:34:44.441Z,2.60
2022-11-03T21:37:16.180Z,2.60
2022-11-03T21:39:46.283Z,2.33
2022-11-03T21:42:34.452Z,2.10
2022-11-03T21:45:01.684Z,2.45
2022-11-03T21:47:28.962Z,2.47
2022-11-03T21:49:56.131Z,2.53
2022-11-03T21:52:36.162Z,2.35
2022-11-03T21:55:05.189Z,2.50
2022-11-03T21:57:32.683Z,2.50
2022-11-03T21:59:59.793Z,2.42
2022-11-03T22:02:30.230Z,2.50
2022-11-03T22:04:58.150Z,2.22
2022-11-03T22:07:25.583Z,2.40
2022-11-03T22:09:52.721Z,2.72
2022-11-03T22:12:19.880Z,2.17
2022-11-03T22:15:05.653Z,2.38
2022-11-03T22:17:33.112Z,3.30
2022-11-03T22:20:18.923Z,2.92
2022-11-03T22:23:04.736Z,2.97
2022-11-03T22:25:50.459Z,2.38
2022-11-03T22:28:17.952Z,2.60
2022-11-03T22:31:03.561Z,2.80
2022-11-03T22:33:30.691Z,3.00
2022-11-03T22:36:21.489Z,2.75
2022-11-03T22:39:07.558Z,3.08
2022-11-03T22:41:53.779Z,2.88
2022-11-03T22:44:39.709Z,2.78
2022-11-03T22:47:08.526Z,2.92
2022-11-03T22:49:36.543Z,2.58
2022-11-03T22:52:04.428Z,2.83
2022-11-03T22:54:31.592Z,2.45
2022-11-03T22:56:58.813Z,2.65
2022-11-03T22:59:26.000Z,3.00
2022-11-03T23:01:54.236Z,2.95
2022-11-03T23:04:21.588Z,2.92
2022-11-03T23:06:48.786Z,2.85
2022-11-03T23:09:15.975Z,2.70
2022-11-03T23:11:43.121Z,2.75
2022-11-03T23:14:11.944Z,2.83
2022-11-03T23:16:44.364Z,2.45
2022-11-03T23:19:32.584Z,3.20
2022-11-03T23:22:00.391Z,2.67
2022-11-03T23:24:46.325Z,2.55
2022-11-03T23:27:14.137Z,2.50
2022-11-03T23:29:41.545Z,2.65
2022-11-03T23:32:08.823Z,2.80
2022-11-03T23:34:36.218Z,2.55
2022-11-03T23:37:03.650Z,3.50
2022-11-03T23:39:30.835Z,3.70
2022-11-03T23:41:58.157Z,3.25
2022-11-03T23:44:25.475Z,2.92
2022-11-03T23:47:11.397Z,2.97
2022-11-03T23:49:38.631Z,2.88
2022-11-03T23:52:05.836Z,3.13
2022-11-03T23:54:33.106Z,3.17
2022-11-03T23:57:18.831Z,2.40
2022-11-03T23:59:46.046Z,2.92
